sensor_id;sensor_type;location;lat;lon;timestamp;pressure;altitude;pressure_sealevel;temperature;humidity
78409;BME280;67697;50.750;-3.270;2023-07-22T00:02:19;100863.18;;;19.28;44.16
78409;BME280;67697;50.750;-3.270;2023-07-22T00:04:44;100863.48;;;18.83;44.01
78409;BME280;67697;50.750;-3.270;2023-07-22T00:07:10;100860.98;;;19.70;43.27
78409;BME280;67697;50.750;-3.270;2023-07-22T00:09:35;100858.33;;;19.83;43.30
78409;BME280;67697;50.750;-3.270;2023-07-22T00:12:01;100857.93;;;19.89;43.17
78409;BME280;67697;50.750;-3.270;2023-07-22T00:14:27;100853.35;;;19.02;44.96
78409;BME280;67697;50.750;-3.270;2023-07-22T00:16:52;100850.17;;;19.20;45.54
78409;BME280;67697;50.750;-3.270;2023-07-22T00:19:21;100848.47;;;18.92;46.34
78409;BME280;67697;50.750;-3.270;2023-07-22T00:21:43;100846.83;;;18.08;47.00
78409;BME280;67697;50.750;-3.270;2023-07-22T00:24:09;100849.33;;;18.76;46.12
78409;BME280;67697;50.750;-3.270;2023-07-22T00:26:34;100849.01;;;18.58;45.66
78409;BME280;67697;50.750;-3.270;2023-07-22T00:29:00;100848.15;;;19.84;44.24
78409;BME280;67697;50.750;-3.270;2023-07-22T00:31:26;100843.89;;;19.13;44.74
78409;BME280;67697;50.750;-3.270;2023-07-22T00:33:51;100844.61;;;19.07;45.30
78409;BME280;67697;50.750;-3.270;2023-07-22T00:36:17;100845.20;;;18.67;45.84
78409;BME280;67697;50.750;-3.270;2023-07-22T00:38:42;100843.12;;;18.84;45.02
78409;BME280;67697;50.750;-3.270;2023-07-22T00:41:08;100839.12;;;18.97;45.16
78409;BME280;67697;50.750;-3.270;2023-07-22T00:43:34;100834.30;;;19.43;44.27
78409;BME280;67697;50.750;-3.270;2023-07-22T00:45:59;100830.50;;;19.24;44.37
78409;BME280;67697;50.750;-3.270;2023-07-22T00:48:25;100829.35;;;17.70;46.90
78409;BME280;67697;50.750;-3.270;2023-07-22T00:50:51;100826.68;;;18.11;46.11
78409;BME280;67697;50.750;-3.270;2023-07-22T00:53:16;100821.67;;;18.71;45.24
78409;BME280;67697;50.750;-3.270;2023-07-22T00:55:42;100821.07;;;18.66;45.86
78409;BME280;67697;50.750;-3.270;2023-07-22T00:58:07;100820.90;;;18.97;45.47
78409;BME280;67697;50.750;-3.270;2023-07-22T01:00:33;100817.74;;;18.96;45.46
78409;BME280;67697;50.750;-3.270;2023-07-22T01:02:58;100814.44;;;18.58;46.00
78409;BME280;67697;50.750;-3.270;2023-07-22T01:05:25;100809.22;;;18.34;46.62
78409;BME280;67697;50.750;-3.270;2023-07-22T01:07:50;100805.10;;;18.22;46.97
78409;BME280;67697;50.750;-3.270;2023-07-22T01:10:15;100805.87;;;18.36;46.36
78409;BME280;67697;50.750;-3.270;2023-07-22T01:12:41;100802.01;;;18.36;46.68
78409;BME280;67697;50.750;-3.270;2023-07-22T01:15:08;100795.21;;;17.30;49.01
78409;BME280;67697;50.750;-3.270;2023-07-22T01:17:32;100797.60;;;15.27;54.71
78409;BME280;67697;50.750;-3.270;2023-07-22T01:19:58;100798.01;;;14.25;59.60
78409;BME280;67697;50.750;-3.270;2023-07-22T01:22:23;100787.02;;;15.34;56.28
78409;BME280;67697;50.750;-3.270;2023-07-22T01:24:49;100781.12;;;15.67;55.52
78409;BME280;67697;50.750;-3.270;2023-07-22T01:27:15;100776.14;;;16.36;54.50
78409;BME280;67697;50.750;-3.270;2023-07-22T01:29:40;100779.53;;;15.20;57.01
78409;BME280;67697;50.750;-3.270;2023-07-22T01:32:06;100778.51;;;15.04;57.88
78409;BME280;67697;50.750;-3.270;2023-07-22T01:34:31;100778.75;;;15.47;57.13
78409;BME280;67697;50.750;-3.270;2023-07-22T01:36:57;100777.96;;;15.51;57.00
78409;BME280;67697;50.750;-3.270;2023-07-22T01:39:23;100776.67;;;16.31;54.26
78409;BME280;67697;50.750;-3.270;2023-07-22T01:41:48;100775.14;;;17.23;52.02
78409;BME280;67697;50.750;-3.270;2023-07-22T01:44:24;100780.26;;;17.15;51.42
78409;BME280;67697;50.750;-3.270;2023-07-22T01:46:40;100780.12;;;16.11;54.03
78409;BME280;67697;50.750;-3.270;2023-07-22T01:49:10;100770.53;;;16.66;52.73
78409;BME280;67697;50.750;-3.270;2023-07-22T01:51:31;100765.65;;;16.52;52.49
78409;BME280;67697;50.750;-3.270;2023-07-22T01:53:57;100763.42;;;15.59;56.29
78409;BME280;67697;50.750;-3.270;2023-07-22T01:56:23;100767.53;;;14.19;59.78
78409;BME280;67697;50.750;-3.270;2023-07-22T01:58:49;100767.02;;;12.90;65.69
78409;BME280;67697;50.750;-3.270;2023-07-22T02:01:14;100765.58;;;12.70;67.87
78409;BME280;67697;50.750;-3.270;2023-07-22T02:03:39;100766.19;;;12.96;67.57
78409;BME280;67697;50.750;-3.270;2023-07-22T02:06:05;100767.14;;;12.96;68.16
78409;BME280;67697;50.750;-3.270;2023-07-22T02:08:31;100760.65;;;13.64;66.41
78409;BME280;67697;50.750;-3.270;2023-07-22T02:11:01;100758.71;;;13.76;65.32
78409;BME280;67697;50.750;-3.270;2023-07-22T02:13:22;100754.29;;;14.52;64.67
78409;BME280;67697;50.750;-3.270;2023-07-22T02:15:47;100754.06;;;14.39;63.61
78409;BME280;67697;50.750;-3.270;2023-07-22T02:18:13;100750.20;;;14.30;63.50
78409;BME280;67697;50.750;-3.270;2023-07-22T02:20:42;100742.51;;;14.75;61.88
78409;BME280;67697;50.750;-3.270;2023-07-22T02:23:04;100740.52;;;15.72;59.34
78409;BME280;67697;50.750;-3.270;2023-07-22T02:25:30;100738.72;;;15.94;58.42
78409;BME280;67697;50.750;-3.270;2023-07-22T02:27:56;100736.20;;;16.07;58.44
78409;BME280;67697;50.750;-3.270;2023-07-22T02:30:21;100735.90;;;16.61;56.31
78409;BME280;67697;50.750;-3.270;2023-07-22T02:32:47;100734.83;;;16.37;56.64
78409;BME280;67697;50.750;-3.270;2023-07-22T02:35:13;100735.00;;;16.35;57.57
78409;BME280;67697;50.750;-3.270;2023-07-22T02:37:39;100737.45;;;15.40;59.41
78409;BME280;67697;50.750;-3.270;2023-07-22T02:40:05;100738.16;;;15.56;59.10
78409;BME280;67697;50.750;-3.270;2023-07-22T02:42:29;100731.49;;;16.19;58.37
78409;BME280;67697;50.750;-3.270;2023-07-22T02:44:55;100728.41;;;16.43;57.84
78409;BME280;67697;50.750;-3.270;2023-07-22T02:47:26;100720.72;;;16.73;56.18
78409;BME280;67697;50.750;-3.270;2023-07-22T02:49:46;100715.85;;;16.41;56.61
78409;BME280;67697;50.750;-3.270;2023-07-22T02:52:12;100713.62;;;16.09;58.79
78409;BME280;67697;50.750;-3.270;2023-07-22T02:54:40;100709.71;;;15.64;59.06
78409;BME280;67697;50.750;-3.270;2023-07-22T02:57:08;100704.67;;;15.77;59.00
78409;BME280;67697;50.750;-3.270;2023-07-22T02:59:29;100700.93;;;14.67;62.82
78409;BME280;67697;50.750;-3.270;2023-07-22T03:01:55;100694.66;;;15.63;59.33
78409;BME280;67697;50.750;-3.270;2023-07-22T03:04:20;100691.52;;;16.41;58.17
78409;BME280;67697;50.750;-3.270;2023-07-22T03:06:46;100689.18;;;15.54;59.55
78409;BME280;67697;50.750;-3.270;2023-07-22T03:09:11;100690.49;;;15.33;61.56
78409;BME280;67697;50.750;-3.270;2023-07-22T03:11:37;100686.73;;;16.45;58.48
78409;BME280;67697;50.750;-3.270;2023-07-22T03:14:03;100679.74;;;16.84;56.79
78409;BME280;67697;50.750;-3.270;2023-07-22T03:16:28;100678.65;;;16.11;58.12
78409;BME280;67697;50.750;-3.270;2023-07-22T03:18:54;100679.41;;;15.44;60.84
78409;BME280;67697;50.750;-3.270;2023-07-22T03:21:20;100681.84;;;14.98;62.83
78409;BME280;67697;50.750;-3.270;2023-07-22T03:23:45;100686.45;;;14.57;64.36
78409;BME280;67697;50.750;-3.270;2023-07-22T03:26:11;100680.31;;;15.07;62.65
78409;BME280;67697;50.750;-3.270;2023-07-22T03:28:36;100677.83;;;15.20;62.67
78409;BME280;67697;50.750;-3.270;2023-07-22T03:31:02;100678.81;;;15.13;62.65
78409;BME280;67697;50.750;-3.270;2023-07-22T03:33:28;100682.15;;;16.01;60.16
78409;BME280;67697;50.750;-3.270;2023-07-22T03:35:53;100681.61;;;15.60;59.11
78409;BME280;67697;50.750;-3.270;2023-07-22T03:38:19;100680.46;;;16.47;57.33
78409;BME280;67697;50.750;-3.270;2023-07-22T03:40:44;100677.59;;;15.24;60.51
78409;BME280;67697;50.750;-3.270;2023-07-22T03:43:10;100678.15;;;15.18;61.31
78409;BME280;67697;50.750;-3.270;2023-07-22T03:45:35;100678.87;;;16.08;58.55
78409;BME280;67697;50.750;-3.270;2023-07-22T03:48:01;100683.68;;;16.41;57.24
78409;BME280;67697;50.750;-3.270;2023-07-22T03:50:27;100684.46;;;16.26;57.65
78409;BME280;67697;50.750;-3.270;2023-07-22T03:52:52;100679.73;;;16.81;55.42
78409;BME280;67697;50.750;-3.270;2023-07-22T03:55:18;100679.36;;;16.58;55.83
78409;BME280;67697;50.750;-3.270;2023-07-22T03:57:44;100679.34;;;16.63;55.88
78409;BME280;67697;50.750;-3.270;2023-07-22T04:00:10;100684.85;;;14.94;59.76
78409;BME280;67697;50.750;-3.270;2023-07-22T04:02:35;100677.66;;;16.36;56.70
78409;BME280;67697;50.750;-3.270;2023-07-22T04:05:01;100674.60;;;17.43;54.40
78409;BME280;67697;50.750;-3.270;2023-07-22T04:07:26;100670.73;;;17.00;54.30
78409;BME280;67697;50.750;-3.270;2023-07-22T04:09:52;100666.72;;;16.41;57.42
78409;BME280;67697;50.750;-3.270;2023-07-22T04:12:17;100665.88;;;15.81;59.31
78409;BME280;67697;50.750;-3.270;2023-07-22T04:14:43;100668.94;;;15.46;59.66
78409;BME280;67697;50.750;-3.270;2023-07-22T04:17:08;100665.90;;;15.92;59.58
78409;BME280;67697;50.750;-3.270;2023-07-22T04:19:34;100667.22;;;14.41;62.99
78409;BME280;67697;50.750;-3.270;2023-07-22T04:22:04;100665.81;;;15.73;60.57
78409;BME280;67697;50.750;-3.270;2023-07-22T04:24:26;100661.68;;;15.37;60.13
78409;BME280;67697;50.750;-3.270;2023-07-22T04:26:51;100656.24;;;16.23;57.24
78409;BME280;67697;50.750;-3.270;2023-07-22T04:29:17;100653.28;;;15.58;58.45
78409;BME280;67697;50.750;-3.270;2023-07-22T04:31:47;100655.53;;;15.23;60.87
78409;BME280;67697;50.750;-3.270;2023-07-22T04:34:08;100647.71;;;15.39;60.44
78409;BME280;67697;50.750;-3.270;2023-07-22T04:36:33;100645.10;;;14.14;64.55
78409;BME280;67697;50.750;-3.270;2023-07-22T04:38:59;100644.11;;;14.87;62.30
78409;BME280;67697;50.750;-3.270;2023-07-22T04:41:25;100642.00;;;15.25;60.76
78409;BME280;67697;50.750;-3.270;2023-07-22T04:43:51;100643.39;;;14.95;61.69
78409;BME280;67697;50.750;-3.270;2023-07-22T04:46:16;100642.25;;;15.48;61.05
78409;BME280;67697;50.750;-3.270;2023-07-22T04:48:41;100639.70;;;14.68;63.92
78409;BME280;67697;50.750;-3.270;2023-07-22T04:51:07;100637.06;;;14.77;63.23
78409;BME280;67697;50.750;-3.270;2023-07-22T04:53:33;100638.30;;;14.41;64.41
78409;BME280;67697;50.750;-3.270;2023-07-22T04:55:58;100641.01;;;14.25;66.03
78409;BME280;67697;50.750;-3.270;2023-07-22T04:58:24;100636.06;;;14.44;65.76
78409;BME280;67697;50.750;-3.270;2023-07-22T05:00:50;100639.79;;;14.19;66.54
78409;BME280;67697;50.750;-3.270;2023-07-22T05:03:15;100635.53;;;14.11;67.18
78409;BME280;67697;50.750;-3.270;2023-07-22T05:05:41;100635.80;;;13.58;69.50
78409;BME280;67697;50.750;-3.270;2023-07-22T05:08:06;100632.55;;;13.93;68.17
78409;BME280;67697;50.750;-3.270;2023-07-22T05:10:32;100626.48;;;14.38;66.70
78409;BME280;67697;50.750;-3.270;2023-07-22T05:12:58;100616.98;;;14.01;68.35
78409;BME280;67697;50.750;-3.270;2023-07-22T05:15:23;100613.37;;;13.62;70.63
78409;BME280;67697;50.750;-3.270;2023-07-22T05:17:49;100606.86;;;12.99;72.06
78409;BME280;67697;50.750;-3.270;2023-07-22T05:20:14;100604.61;;;13.80;69.96
78409;BME280;67697;50.750;-3.270;2023-07-22T05:22:40;100599.77;;;13.61;70.50
78409;BME280;67697;50.750;-3.270;2023-07-22T05:25:06;100591.13;;;13.43;68.90
78409;BME280;67697;50.750;-3.270;2023-07-22T05:27:31;100585.48;;;13.81;69.18
78409;BME280;67697;50.750;-3.270;2023-07-22T05:29:57;100584.48;;;13.83;70.07
78409;BME280;67697;50.750;-3.270;2023-07-22T05:32:22;100577.88;;;14.49;68.96
78409;BME280;67697;50.750;-3.270;2023-07-22T05:34:48;100585.45;;;13.82;69.71
78409;BME280;67697;50.750;-3.270;2023-07-22T05:37:13;100588.32;;;13.90;70.50
78409;BME280;67697;50.750;-3.270;2023-07-22T05:39:39;100579.86;;;14.30;70.03
78409;BME280;67697;50.750;-3.270;2023-07-22T05:42:05;100584.79;;;13.95;71.13
78409;BME280;67697;50.750;-3.270;2023-07-22T05:44:30;100580.41;;;14.06;71.52
78409;BME280;67697;50.750;-3.270;2023-07-22T05:46:56;100576.38;;;14.30;72.16
78409;BME280;67697;50.750;-3.270;2023-07-22T05:49:21;100563.33;;;14.09;72.09
78409;BME280;67697;50.750;-3.270;2023-07-22T05:51:47;100560.32;;;15.03;68.32
78409;BME280;67697;50.750;-3.270;2023-07-22T05:54:13;100562.95;;;14.30;71.75
78409;BME280;67697;50.750;-3.270;2023-07-22T05:56:38;100558.18;;;14.61;70.94
78409;BME280;67697;50.750;-3.270;2023-07-22T05:59:08;100563.03;;;14.31;72.59
78409;BME280;67697;50.750;-3.270;2023-07-22T06:01:29;100561.84;;;14.76;71.63
78409;BME280;67697;50.750;-3.270;2023-07-22T06:03:55;100559.07;;;14.61;71.88
78409;BME280;67697;50.750;-3.270;2023-07-22T06:06:20;100554.23;;;14.59;73.29
78409;BME280;67697;50.750;-3.270;2023-07-22T06:08:46;100554.20;;;14.32;73.84
78409;BME280;67697;50.750;-3.270;2023-07-22T06:11:12;100551.97;;;14.29;74.02
78409;BME280;67697;50.750;-3.270;2023-07-22T06:13:37;100549.02;;;14.36;74.04
78409;BME280;67697;50.750;-3.270;2023-07-22T06:16:03;100544.01;;;14.11;74.32
78409;BME280;67697;50.750;-3.270;2023-07-22T06:18:28;100545.69;;;14.04;75.59
78409;BME280;67697;50.750;-3.270;2023-07-22T06:20:53;100547.26;;;13.88;75.76
78409;BME280;67697;50.750;-3.270;2023-07-22T06:23:19;100546.50;;;14.12;76.10
78409;BME280;67697;50.750;-3.270;2023-07-22T06:25:44;100547.66;;;14.06;76.18
78409;BME280;67697;50.750;-3.270;2023-07-22T06:28:10;100545.95;;;14.37;74.76
78409;BME280;67697;50.750;-3.270;2023-07-22T06:30:35;100550.29;;;13.79;77.01
78409;BME280;67697;50.750;-3.270;2023-07-22T06:33:00;100546.63;;;14.14;76.18
78409;BME280;67697;50.750;-3.270;2023-07-22T06:35:26;100542.41;;;13.87;76.19
78409;BME280;67697;50.750;-3.270;2023-07-22T06:37:51;100545.43;;;13.73;76.08
78409;BME280;67697;50.750;-3.270;2023-07-22T06:40:17;100539.21;;;13.82;76.80
78409;BME280;67697;50.750;-3.270;2023-07-22T06:42:42;100539.69;;;13.61;77.70
78409;BME280;67697;50.750;-3.270;2023-07-22T06:45:08;100534.06;;;14.00;75.90
78409;BME280;67697;50.750;-3.270;2023-07-22T06:47:33;100529.59;;;14.14;75.18
78409;BME280;67697;50.750;-3.270;2023-07-22T06:49:58;100526.47;;;14.15;75.13
78409;BME280;67697;50.750;-3.270;2023-07-22T06:52:24;100528.84;;;13.85;76.06
78409;BME280;67697;50.750;-3.270;2023-07-22T06:54:50;100526.78;;;14.20;75.53
78409;BME280;67697;50.750;-3.270;2023-07-22T06:57:15;100519.48;;;13.91;74.98
78409;BME280;67697;50.750;-3.270;2023-07-22T06:59:40;100520.05;;;14.19;74.59
78409;BME280;67697;50.750;-3.270;2023-07-22T07:02:06;100518.66;;;14.44;73.04
78409;BME280;67697;50.750;-3.270;2023-07-22T07:04:31;100518.44;;;14.41;73.40
78409;BME280;67697;50.750;-3.270;2023-07-22T07:06:57;100516.29;;;15.25;71.34
78409;BME280;67697;50.750;-3.270;2023-07-22T07:09:23;100512.02;;;14.11;73.38
78409;BME280;67697;50.750;-3.270;2023-07-22T07:11:48;100505.12;;;14.91;72.04
78409;BME280;67697;50.750;-3.270;2023-07-22T07:14:15;100507.36;;;15.21;70.11
78409;BME280;67697;50.750;-3.270;2023-07-22T07:16:39;100508.24;;;15.08;70.02
78409;BME280;67697;50.750;-3.270;2023-07-22T07:19:04;100509.08;;;14.97;70.75
78409;BME280;67697;50.750;-3.270;2023-07-22T07:21:30;100507.63;;;14.54;72.57
78409;BME280;67697;50.750;-3.270;2023-07-22T07:23:55;100512.28;;;13.82;76.06
78409;BME280;67697;50.750;-3.270;2023-07-22T07:26:21;100506.90;;;14.34;74.42
78409;BME280;67697;50.750;-3.270;2023-07-22T07:28:46;100507.45;;;14.27;74.24
78409;BME280;67697;50.750;-3.270;2023-07-22T07:31:11;100501.81;;;14.81;72.25
78409;BME280;67697;50.750;-3.270;2023-07-22T07:33:38;100504.06;;;14.74;73.81
78409;BME280;67697;50.750;-3.270;2023-07-22T07:36:04;100502.08;;;14.68;73.58
78409;BME280;67697;50.750;-3.270;2023-07-22T07:38:29;100501.52;;;14.63;73.16
78409;BME280;67697;50.750;-3.270;2023-07-22T07:40:57;100499.41;;;14.81;73.78
78409;BME280;67697;50.750;-3.270;2023-07-22T07:43:20;100498.12;;;13.91;75.47
78409;BME280;67697;50.750;-3.270;2023-07-22T07:45:46;100498.90;;;14.21;76.07
78409;BME280;67697;50.750;-3.270;2023-07-22T07:48:11;100502.24;;;13.97;76.71
78409;BME280;67697;50.750;-3.270;2023-07-22T07:50:37;100502.66;;;13.64;77.30
78409;BME280;67697;50.750;-3.270;2023-07-22T07:53:02;100499.03;;;13.87;77.01
78409;BME280;67697;50.750;-3.270;2023-07-22T07:55:28;100495.05;;;14.06;76.22
78409;BME280;67697;50.750;-3.270;2023-07-22T07:57:54;100491.53;;;14.47;74.58
78409;BME280;67697;50.750;-3.270;2023-07-22T08:00:20;100489.22;;;14.28;76.20
78409;BME280;67697;50.750;-3.270;2023-07-22T08:02:45;100492.45;;;14.45;74.77
78409;BME280;67697;50.750;-3.270;2023-07-22T08:05:11;100487.08;;;14.36;76.58
78409;BME280;67697;50.750;-3.270;2023-07-22T08:07:36;100485.96;;;14.16;75.32
78409;BME280;67697;50.750;-3.270;2023-07-22T08:10:02;100485.48;;;14.42;75.14
78409;BME280;67697;50.750;-3.270;2023-07-22T08:12:27;100487.45;;;14.10;75.41
78409;BME280;67697;50.750;-3.270;2023-07-22T08:14:53;100485.71;;;14.10;75.84
78409;BME280;67697;50.750;-3.270;2023-07-22T08:17:18;100487.18;;;14.06;76.93
78409;BME280;67697;50.750;-3.270;2023-07-22T08:19:44;100490.87;;;14.21;76.42
78409;BME280;67697;50.750;-3.270;2023-07-22T08:22:09;100489.60;;;14.33;76.21
78409;BME280;67697;50.750;-3.270;2023-07-22T08:24:34;100485.64;;;14.66;73.39
78409;BME280;67697;50.750;-3.270;2023-07-22T08:26:59;100484.52;;;14.07;76.30
78409;BME280;67697;50.750;-3.270;2023-07-22T08:29:27;100479.18;;;14.02;78.10
78409;BME280;67697;50.750;-3.270;2023-07-22T08:31:50;100474.29;;;14.43;76.39
78409;BME280;67697;50.750;-3.270;2023-07-22T08:34:15;100466.95;;;14.05;78.68
78409;BME280;67697;50.750;-3.270;2023-07-22T08:36:41;100464.98;;;13.84;80.31
78409;BME280;67697;50.750;-3.270;2023-07-22T08:39:06;100463.12;;;13.87;80.40
78409;BME280;67697;50.750;-3.270;2023-07-22T08:41:31;100463.82;;;14.50;79.02
78409;BME280;67697;50.750;-3.270;2023-07-22T08:44:00;100462.92;;;14.43;78.47
78409;BME280;67697;50.750;-3.270;2023-07-22T08:46:23;100463.03;;;14.32;79.32
78409;BME280;67697;50.750;-3.270;2023-07-22T08:48:49;100463.20;;;14.16;81.07
78409;BME280;67697;50.750;-3.270;2023-07-22T08:51:15;100461.16;;;14.10;79.77
78409;BME280;67697;50.750;-3.270;2023-07-22T08:53:39;100461.67;;;13.93;80.16
78409;BME280;67697;50.750;-3.270;2023-07-22T08:56:04;100456.74;;;13.92;79.60
78409;BME280;67697;50.750;-3.270;2023-07-22T08:58:29;100454.08;;;14.61;78.86
78409;BME280;67697;50.750;-3.270;2023-07-22T09:00:55;100452.01;;;14.18;79.82
78409;BME280;67697;50.750;-3.270;2023-07-22T09:03:25;100446.51;;;13.74;82.24
78409;BME280;67697;50.750;-3.270;2023-07-22T09:05:45;100444.00;;;14.15;81.84
78409;BME280;67697;50.750;-3.270;2023-07-22T09:08:10;100443.62;;;14.52;79.76
78409;BME280;67697;50.750;-3.270;2023-07-22T09:10:37;100440.26;;;14.17;80.75
78409;BME280;67697;50.750;-3.270;2023-07-22T09:13:01;100437.95;;;14.64;79.20
78409;BME280;67697;50.750;-3.270;2023-07-22T09:15:26;100436.54;;;14.79;78.52
78409;BME280;67697;50.750;-3.270;2023-07-22T09:17:52;100434.42;;;14.51;80.99
78409;BME280;67697;50.750;-3.270;2023-07-22T09:20:17;100430.51;;;13.85;82.73
78409;BME280;67697;50.750;-3.270;2023-07-22T09:22:44;100431.15;;;13.96;82.22
78409;BME280;67697;50.750;-3.270;2023-07-22T09:25:14;100432.03;;;14.13;82.66
78409;BME280;67697;50.750;-3.270;2023-07-22T09:27:34;100429.16;;;13.90;84.42
78409;BME280;67697;50.750;-3.270;2023-07-22T09:29:58;100424.07;;;13.50;84.92
78409;BME280;67697;50.750;-3.270;2023-07-22T09:32:34;100422.66;;;13.74;84.97
78409;BME280;67697;50.750;-3.270;2023-07-22T09:34:54;100424.20;;;13.58;85.13
78409;BME280;67697;50.750;-3.270;2023-07-22T09:37:15;100422.22;;;13.88;84.30
78409;BME280;67697;50.750;-3.270;2023-07-22T09:39:46;100421.09;;;13.93;83.66
78409;BME280;67697;50.750;-3.270;2023-07-22T09:42:06;100419.35;;;13.88;84.57
78409;BME280;67697;50.750;-3.270;2023-07-22T09:44:44;100418.80;;;14.18;84.01
78409;BME280;67697;50.750;-3.270;2023-07-22T09:47:08;100421.29;;;14.04;85.82
78409;BME280;67697;50.750;-3.270;2023-07-22T09:49:39;100415.32;;;13.72;86.08
78409;BME280;67697;50.750;-3.270;2023-07-22T09:51:52;100409.90;;;13.81;85.74
78409;BME280;67697;50.750;-3.270;2023-07-22T09:54:14;100409.01;;;13.76;86.48
78409;BME280;67697;50.750;-3.270;2023-07-22T09:56:44;100410.69;;;14.02;86.65
78409;BME280;67697;50.750;-3.270;2023-07-22T09:59:05;100409.80;;;13.55;87.70
78409;BME280;67697;50.750;-3.270;2023-07-22T10:01:30;100411.83;;;13.55;88.45
78409;BME280;67697;50.750;-3.270;2023-07-22T10:03:56;100408.68;;;13.66;89.69
78409;BME280;67697;50.750;-3.270;2023-07-22T10:06:22;100404.36;;;13.66;90.27
78409;BME280;67697;50.750;-3.270;2023-07-22T10:08:47;100395.08;;;13.89;88.15
78409;BME280;67697;50.750;-3.270;2023-07-22T10:11:13;100401.63;;;13.63;89.55
78409;BME280;67697;50.750;-3.270;2023-07-22T10:13:39;100388.63;;;13.70;88.43
78409;BME280;67697;50.750;-3.270;2023-07-22T10:16:09;100386.46;;;13.76;87.65
78409;BME280;67697;50.750;-3.270;2023-07-22T10:18:46;100391.16;;;13.40;88.37
78409;BME280;67697;50.750;-3.270;2023-07-22T10:21:04;100380.97;;;13.67;88.30
78409;BME280;67697;50.750;-3.270;2023-07-22T10:23:26;100384.70;;;13.28;89.91
78409;BME280;67697;50.750;-3.270;2023-07-22T10:25:46;100380.64;;;12.89;91.60
78409;BME280;67697;50.750;-3.270;2023-07-22T10:28:17;100374.76;;;12.94;91.95
78409;BME280;67697;50.750;-3.270;2023-07-22T10:30:38;100372.40;;;12.96;91.56
78409;BME280;67697;50.750;-3.270;2023-07-22T10:33:22;100370.37;;;13.12;92.41
78409;BME280;67697;50.750;-3.270;2023-07-22T10:40:33;100357.85;;;13.27;90.33
78409;BME280;67697;50.750;-3.270;2023-07-22T10:42:54;100355.88;;;13.47;90.25
78409;BME280;67697;50.750;-3.270;2023-07-22T10:47:35;100358.48;;;13.52;90.66
78409;BME280;67697;50.750;-3.270;2023-07-22T10:50:05;100351.28;;;13.18;92.24
78409;BME280;67697;50.750;-3.270;2023-07-22T10:54:51;100348.13;;;13.38;91.51
78409;BME280;67697;50.750;-3.270;2023-07-22T10:57:24;100340.44;;;13.11;91.24
78409;BME280;67697;50.750;-3.270;2023-07-22T10:59:48;100339.27;;;13.07;93.21
78409;BME280;67697;50.750;-3.270;2023-07-22T11:04:45;100331.34;;;12.94;92.19
78409;BME280;67697;50.750;-3.270;2023-07-22T11:09:38;100334.47;;;13.37;90.87
78409;BME280;67697;50.750;-3.270;2023-07-22T11:14:24;100328.90;;;13.10;90.65
78409;BME280;67697;50.750;-3.270;2023-07-22T11:16:50;100321.20;;;13.50;91.80
78409;BME280;67697;50.750;-3.270;2023-07-22T11:19:10;100320.95;;;13.63;91.12
78409;BME280;67697;50.750;-3.270;2023-07-22T11:23:55;100314.41;;;13.68;90.85
78409;BME280;67697;50.750;-3.270;2023-07-22T11:26:20;100305.45;;;13.91;91.48
78409;BME280;67697;50.750;-3.270;2023-07-22T11:28:46;100310.15;;;13.38;90.82
78409;BME280;67697;50.750;-3.270;2023-07-22T11:31:11;100302.87;;;13.72;90.23
78409;BME280;67697;50.750;-3.270;2023-07-22T11:33:40;100304.39;;;13.94;91.87
78409;BME280;67697;50.750;-3.270;2023-07-22T11:36:03;100298.91;;;13.91;91.60
78409;BME280;67697;50.750;-3.270;2023-07-22T11:38:28;100297.64;;;13.71;91.42
78409;BME280;67697;50.750;-3.270;2023-07-22T11:40:53;100295.87;;;14.02;91.22
78409;BME280;67697;50.750;-3.270;2023-07-22T11:43:19;100291.00;;;14.28;89.18
78409;BME280;67697;50.750;-3.270;2023-07-22T11:45:44;100284.92;;;14.44;89.75
78409;BME280;67697;50.750;-3.270;2023-07-22T11:48:11;100287.27;;;14.19;90.09
78409;BME280;67697;50.750;-3.270;2023-07-22T11:50:37;100279.89;;;13.82;92.07
78409;BME280;67697;50.750;-3.270;2023-07-22T11:53:07;100278.36;;;13.91;92.68
78409;BME280;67697;50.750;-3.270;2023-07-22T11:55:29;100281.63;;;13.94;92.00
78409;BME280;67697;50.750;-3.270;2023-07-22T11:57:54;100275.13;;;13.98;92.06
78409;BME280;67697;50.750;-3.270;2023-07-22T12:00:36;100277.19;;;14.25;91.47
78409;BME280;67697;50.750;-3.270;2023-07-22T12:02:54;100268.03;;;14.36;90.85
78409;BME280;67697;50.750;-3.270;2023-07-22T12:05:24;100267.93;;;14.34;90.49
78409;BME280;67697;50.750;-3.270;2023-07-22T12:07:37;100266.27;;;14.03;91.72
78409;BME280;67697;50.750;-3.270;2023-07-22T12:10:02;100263.35;;;13.88;92.17
78409;BME280;67697;50.750;-3.270;2023-07-22T12:12:32;100262.55;;;14.26;92.19
78409;BME280;67697;50.750;-3.270;2023-07-22T12:14:52;100260.01;;;14.33;91.51
78409;BME280;67697;50.750;-3.270;2023-07-22T12:17:17;100254.01;;;13.93;92.12
78409;BME280;67697;50.750;-3.270;2023-07-22T12:19:51;100251.36;;;14.04;92.63
78409;BME280;67697;50.750;-3.270;2023-07-22T12:22:14;100243.96;;;14.02;92.36
78409;BME280;67697;50.750;-3.270;2023-07-22T12:24:37;100244.44;;;13.85;94.05
78409;BME280;67697;50.750;-3.270;2023-07-22T12:27:16;100242.05;;;14.29;92.19
78409;BME280;67697;50.750;-3.270;2023-07-22T12:29:24;100241.96;;;14.28;91.65
78409;BME280;67697;50.750;-3.270;2023-07-22T12:31:50;100233.28;;;14.21;91.07
78409;BME280;67697;50.750;-3.270;2023-07-22T12:34:16;100227.45;;;14.04;93.08
78409;BME280;67697;50.750;-3.270;2023-07-22T12:36:41;100224.10;;;14.35;92.27
78409;BME280;67697;50.750;-3.270;2023-07-22T12:39:07;100221.46;;;14.37;91.17
78409;BME280;67697;50.750;-3.270;2023-07-22T12:41:32;100221.53;;;14.41;91.85
78409;BME280;67697;50.750;-3.270;2023-07-22T12:43:57;100213.79;;;14.40;92.03
78409;BME280;67697;50.750;-3.270;2023-07-22T12:46:23;100210.07;;;14.53;91.90
78409;BME280;67697;50.750;-3.270;2023-07-22T12:48:48;100205.07;;;14.33;93.17
78409;BME280;67697;50.750;-3.270;2023-07-22T12:51:14;100203.77;;;14.51;92.61